Brunswick, ME (04011)

12:54 AM EDT on August 31, 2016 (GMT -0400)
Brunswick Police Department | | Change Station

Elev 89 ft 43.91 °N, 69.98 °W | Updated 23 minutes ago

Partly Cloudy
Partly Cloudy
64.2 °F
Feels Like 64.2 °F
N
0.0
Wind Variable Wind from WNW
Gusts 1.0 mph

Today
High -- | Low -- °F
--% Chance of Precip.
Yesterday
High -- | Low -- °F
Precip. -- in
Pressure 30.03 in
Visibility 10.0 miles
Clouds Few 12000 ft
Dew Point 61 °F
Humidity 88%
Rainfall 0.00 in
Snow Depth Not available.
6:02 AM 7:16 PM
Waning Crescent, 1% visible
METAR KIWI 310353Z AUTO 00000KT 10SM FEW120 16/14 A3003 RMK AO2 SLP168 T01560139
Pressure 30.03 in
Visibility 10.0 miles
Clouds Few 12000 ft
Dew Point 61 °F
Humidity 88%
Rainfall 0.00 in
Snow Depth Not available.
6:02 AM 7:16 PM
Waning Crescent, 1% visible
METAR KIWI 310353Z AUTO 00000KT 10SM FEW120 16/14 A3003 RMK AO2 SLP168 T01560139

10-Day Weather Forecast

Almanac

Astronomy

Aug. 31, 2016 Rise Set
Actual Time
Civil Twilight
Nautical Twilight
Astronomical Twilight
Moon
Length of Visible Light
Length of Day
Tomorrow will be .
, % of the Moon is Illuminated

Today's Extremes

State Highs State Lows

Community

WunderPhotos

Upload Photos

1,936,039 photos uploaded!

WunderBlog® & News

Nearby

Air Quality

  Air Quality AQ Index Pollutant
Not available.

Snow Depth

Station Depth Elevation

Earthquake Activity

City Distance Mag. Time & Date
Minimum magnitude displayed is 2.5.

Coastal Water Temperatures

Place Temperature

Stations

Nearby Weather Stations

Station Location Temp. Windchill Dew Point Humidity Wind Precip. Elev Updated Type
                   

Watches & Warnings

There are currently no watches in effect.